Owyhee, Nevada
Current Conditions -  °F | °C
As of 5:58 PM on Friday 28 Nov 2014 (Local Time) from KMUO Reporting Station
Broken Clouds Broken Clouds  
Wind Chill: 46°   Ceiling: 10000
Heat Index: 47°   Visibility: 10mi
Dew Point: 38°   Wind: 5mph
Humidity: 69%   Direction: NA
Pressure: 29.65"   Gusts: NA
Location:  41.95°N, 116.09°W
Report Text: KMUO 290158Z AUTO VRB04KT 10SM BKN100 09/03 A2965 RMK AO2 SLP044 T00860033
Loading
Personal Weather Stations






























Interactive Weather Map New forecast layout! Learn more

10-Day Weather Forecast

Advertisements
Track Severe Weather on mobile